ANA74K RJTT-LSZH
Flight info
| Callsign | ANA74K |
|---|---|
| Flight time | N/A |
| Altitude | 33000 |
| Route | INUBO Y808 PUTER/N0487F340 A590 POWAL/N0495F330 DCT OPAKE DCT NATES R338 MARCC DCT JUJXI/N0483F350 DCT 70N165W 75N159W DCT NAMWE DCT 84N060W/M085F370 82N040W 75N020W 70N014W 65N009W/M085F390 DCT RIXUN/N0490F390 DCT WAFIL DCT TIMUP L7 LONAM DCT SUTAL DCT GTQ DCT BAMEV DCT BLM |
| Aircraft | A35K/H-SDE2E3GHIJ3J4J5LM1ORWXY/LB1D1 |
Departure
| Time | 2026-02-22 06:16 |
|---|---|
| Airport | Tokyo Haneda International Airport (RJTT) |
Arrival
| Time | N/A |
|---|---|
| Airport | Zürich Airport (LSZH) |
| Time | Latitude | Longitude | Altitude | Speed | Heading |
|---|---|---|---|---|---|
| 2026-02-22 05:40 | 35.54913 | 139.79146 | 30 ft | 0 kts | 190° |
| 2026-02-22 05:41 | 35.54925 | 139.79149 | 31 ft | 0 kts | 190° |
| 2026-02-22 05:42 | 35.54913 | 139.79146 | 30 ft | 0 kts | 190° |
| 2026-02-22 06:06 | 35.54916 | 139.79147 | 30 ft | 2 kts | 189° |
| 2026-02-22 06:06 | 35.54934 | 139.79150 | 29 ft | 3 kts | 185° |
| 2026-02-22 06:07 | 35.54954 | 139.79152 | 29 ft | 3 kts | 181° |
| 2026-02-22 06:07 | 35.54975 | 139.79152 | 28 ft | 3 kts | 177° |
| 2026-02-22 06:07 | 35.54995 | 139.79150 | 29 ft | 3 kts | 173° |
| 2026-02-22 06:07 | 35.55015 | 139.79146 | 28 ft | 3 kts | 169° |
| 2026-02-22 06:08 | 35.55035 | 139.79141 | 29 ft | 3 kts | 164° |
| 2026-02-22 06:08 | 35.55054 | 139.79134 | 29 ft | 3 kts | 159° |
| 2026-02-22 06:08 | 35.55073 | 139.79124 | 28 ft | 3 kts | 152° |
| 2026-02-22 06:08 | 35.55084 | 139.79117 | 27 ft | 0 kts | 148° |
| 2026-02-22 06:10 | 35.55083 | 139.79117 | 30 ft | 0 kts | 148° |
| 2026-02-22 06:11 | 35.55071 | 139.79127 | 30 ft | 3 kts | 144° |
| 2026-02-22 06:11 | 35.55055 | 139.79148 | 30 ft | 4 kts | 130° |
| 2026-02-22 06:11 | 35.55042 | 139.79195 | 30 ft | 7 kts | 92° |
| 2026-02-22 06:11 | 35.55064 | 139.79270 | 30 ft | 12 kts | 65° |
| 2026-02-22 06:12 | 35.55114 | 139.79370 | 29 ft | 15 kts | 53° |
| 2026-02-22 06:12 | 35.55207 | 139.79376 | 29 ft | 15 kts | 338° |
| 2026-02-22 06:12 | 35.55302 | 139.79313 | 29 ft | 17 kts | 330° |
| 2026-02-22 06:12 | 35.55414 | 139.79233 | 29 ft | 21 kts | 330° |
| 2026-02-22 06:13 | 35.55548 | 139.79138 | 29 ft | 24 kts | 330° |
| 2026-02-22 06:13 | 35.55705 | 139.79027 | 29 ft | 28 kts | 330° |
| 2026-02-22 06:13 | 35.55882 | 139.78901 | 29 ft | 31 kts | 330° |
| 2026-02-22 06:13 | 35.56072 | 139.78766 | 29 ft | 30 kts | 330° |
| 2026-02-22 06:14 | 35.56240 | 139.78649 | 29 ft | 26 kts | 330° |
| 2026-02-22 06:14 | 35.56391 | 139.78541 | 29 ft | 21 kts | 329° |
| 2026-02-22 06:14 | 35.56456 | 139.78506 | 29 ft | 8 kts | 353° |
| 2026-02-22 06:14 | 35.56510 | 139.78530 | 29 ft | 9 kts | 39° |
| 2026-02-22 06:15 | 35.56546 | 139.78591 | 29 ft | 9 kts | 58° |
| 2026-02-22 06:15 | 35.56564 | 139.78657 | 29 ft | 8 kts | 100° |
| 2026-02-22 06:15 | 35.56517 | 139.78713 | 29 ft | 15 kts | 150° |
| 2026-02-22 06:15 | 35.56255 | 139.78894 | 29 ft | 79 kts | 150° |
| 2026-02-22 06:16 | 35.55563 | 139.79380 | 31 ft | 148 kts | 151° |
| 2026-02-22 06:16 | 35.54542 | 139.80097 | 331 ft | 182 kts | 154° |
| 2026-02-22 06:16 | 35.53428 | 139.80914 | 747 ft | 191 kts | 152° |
| 2026-02-22 06:16 | 35.52410 | 139.82040 | 1202 ft | 200 kts | 138° |
| 2026-02-22 06:17 | 35.51442 | 139.83376 | 1451 ft | 220 kts | 137° |
| 2026-02-22 06:17 | 35.50365 | 139.84827 | 1734 ft | 238 kts | 138° |
| 2026-02-22 06:17 | 35.49232 | 139.86307 | 2298 ft | 242 kts | 140° |
| 2026-02-22 06:17 | 35.48050 | 139.87814 | 2855 ft | 248 kts | 141° |
| 2026-02-22 06:18 | 35.46820 | 139.89353 | 3369 ft | 256 kts | 140° |
| 2026-02-22 06:18 | 35.45679 | 139.91093 | 3844 ft | 272 kts | 123° |
| 2026-02-22 06:18 | 35.45260 | 139.93407 | 4322 ft | 289 kts | 89° |
| 2026-02-22 06:18 | 35.45893 | 139.95745 | 4901 ft | 295 kts | 55° |
| 2026-02-22 06:19 | 35.47268 | 139.97610 | 5532 ft | 294 kts | 40° |
| 2026-02-22 06:19 | 35.48954 | 139.98984 | 6166 ft | 290 kts | 18° |
| 2026-02-22 06:19 | 35.50892 | 139.99409 | 6779 ft | 280 kts | 351° |
| 2026-02-22 06:19 | 35.52779 | 139.98961 | 7374 ft | 276 kts | 340° |
| 2026-02-22 06:20 | 35.54636 | 139.98289 | 7932 ft | 279 kts | 338° |
| 2026-02-22 06:20 | 35.56479 | 139.97607 | 8506 ft | 282 kts | 339° |
| 2026-02-22 06:20 | 35.58374 | 139.96924 | 9099 ft | 285 kts | 340° |
| 2026-02-22 06:20 | 35.60299 | 139.96286 | 9712 ft | 288 kts | 344° |
| 2026-02-22 06:21 | 35.62317 | 139.96090 | 10254 ft | 297 kts | 355° |
| 2026-02-22 06:21 | 35.64421 | 139.96182 | 10615 ft | 307 kts | 359° |
| 2026-02-22 06:21 | 35.66578 | 139.96341 | 11079 ft | 312 kts | 359° |
| 2026-02-22 06:21 | 35.68764 | 139.96503 | 11609 ft | 316 kts | 359° |
| 2026-02-22 06:22 | 35.70969 | 139.96660 | 12166 ft | 319 kts | 359° |
| 2026-02-22 06:22 | 35.73186 | 139.96680 | 12677 ft | 318 kts | 349° |
| 2026-02-22 06:22 | 35.75329 | 139.96071 | 13178 ft | 315 kts | 336° |
| 2026-02-22 06:22 | 35.77416 | 139.95135 | 13537 ft | 323 kts | 334° |
| 2026-02-22 06:23 | 35.79532 | 139.94118 | 13966 ft | 328 kts | 333° |
| 2026-02-22 06:23 | 35.81667 | 139.93095 | 14434 ft | 331 kts | 334° |
| 2026-02-22 06:23 | 35.83825 | 139.92068 | 14897 ft | 334 kts | 334° |
| 2026-02-22 06:23 | 35.85979 | 139.91048 | 15311 ft | 339 kts | 334° |
| 2026-02-22 06:24 | 35.88211 | 139.89991 | 15587 ft | 348 kts | 334° |
| 2026-02-22 06:24 | 35.90491 | 139.88916 | 16007 ft | 352 kts | 334° |
| 2026-02-22 06:24 | 35.92796 | 139.87836 | 16397 ft | 358 kts | 334° |
| 2026-02-22 06:24 | 35.95161 | 139.86722 | 16637 ft | 368 kts | 334° |
| 2026-02-22 06:25 | 35.97650 | 139.85854 | 17010 ft | 379 kts | 347° |
| 2026-02-22 06:25 | 36.00323 | 139.85856 | 17406 ft | 392 kts | 6° |
| 2026-02-22 06:25 | 36.02989 | 139.86784 | 17627 ft | 405 kts | 17° |
| 2026-02-22 06:25 | 36.05639 | 139.88039 | 17988 ft | 411 kts | 18° |
| 2026-02-22 06:26 | 36.08314 | 139.89332 | 18415 ft | 414 kts | 18° |
| 2026-02-22 06:26 | 36.10980 | 139.90608 | 18783 ft | 417 kts | 18° |
| 2026-02-22 06:26 | 36.13691 | 139.91894 | 19175 ft | 419 kts | 18° |
| 2026-02-22 06:26 | 36.16414 | 139.93238 | 19560 ft | 423 kts | 22° |
| 2026-02-22 06:27 | 36.18880 | 139.95270 | 19895 ft | 430 kts | 42° |
| 2026-02-22 06:27 | 36.20721 | 139.98184 | 20261 ft | 434 kts | 62° |
| 2026-02-22 06:27 | 36.21738 | 140.01684 | 20699 ft | 432 kts | 81° |
| 2026-02-22 06:27 | 36.22179 | 140.05370 | 21114 ft | 433 kts | 84° |
| 2026-02-22 06:28 | 36.22586 | 140.09070 | 21527 ft | 436 kts | 83° |
| 2026-02-22 06:28 | 36.23060 | 140.12791 | 21930 ft | 438 kts | 82° |
| 2026-02-22 06:28 | 36.23586 | 140.16523 | 22326 ft | 441 kts | 82° |
| 2026-02-22 06:28 | 36.23984 | 140.20293 | 22746 ft | 441 kts | 89° |
| 2026-02-22 06:29 | 36.23877 | 140.24072 | 23157 ft | 439 kts | 101° |
| 2026-02-22 06:29 | 36.23165 | 140.27722 | 23544 ft | 435 kts | 113° |
| 2026-02-22 06:29 | 36.21880 | 140.31094 | 23887 ft | 431 kts | 125° |
| 2026-02-22 06:29 | 36.20088 | 140.34055 | 24147 ft | 429 kts | 137° |
| 2026-02-22 06:30 | 36.17893 | 140.36536 | 24415 ft | 427 kts | 145° |
| 2026-02-22 06:30 | 36.15545 | 140.38808 | 24707 ft | 430 kts | 146° |
| 2026-02-22 06:30 | 36.13157 | 140.41077 | 24871 ft | 436 kts | 146° |
| 2026-02-22 06:30 | 36.10755 | 140.43368 | 24997 ft | 444 kts | 146° |
| 2026-02-22 06:31 | 36.08296 | 140.45725 | 25185 ft | 449 kts | 146° |
| 2026-02-22 06:31 | 36.05822 | 140.48104 | 25461 ft | 452 kts | 146° |
| 2026-02-22 06:31 | 36.03334 | 140.50500 | 25744 ft | 455 kts | 146° |
| 2026-02-22 06:31 | 36.00830 | 140.52910 | 25995 ft | 459 kts | 146° |
| 2026-02-22 06:32 | 35.98287 | 140.55356 | 26120 ft | 466 kts | 146° |
| 2026-02-22 06:32 | 35.95705 | 140.57838 | 26246 ft | 472 kts | 146° |
| 2026-02-22 06:32 | 35.93095 | 140.60346 | 26383 ft | 479 kts | 146° |
| 2026-02-22 06:32 | 35.90442 | 140.62894 | 26512 ft | 485 kts | 146° |
| 2026-02-22 06:33 | 35.87763 | 140.65464 | 26667 ft | 490 kts | 146° |
| 2026-02-22 06:33 | 35.85058 | 140.68058 | 26867 ft | 494 kts | 146° |
| 2026-02-22 06:33 | 35.82338 | 140.70664 | 27106 ft | 497 kts | 146° |
| 2026-02-22 06:33 | 35.79636 | 140.73252 | 27356 ft | 500 kts | 146° |
| 2026-02-22 06:34 | 35.76910 | 140.75941 | 27606 ft | 504 kts | 142° |
| 2026-02-22 06:34 | 35.74411 | 140.79004 | 27835 ft | 512 kts | 133° |
| 2026-02-22 06:34 | 35.72302 | 140.82567 | 28064 ft | 518 kts | 123° |
| 2026-02-22 06:34 | 35.70675 | 140.86543 | 28277 ft | 523 kts | 115° |
| 2026-02-22 06:35 | 35.69319 | 140.90717 | 28532 ft | 526 kts | 112° |
| 2026-02-22 06:35 | 35.68062 | 140.94958 | 28755 ft | 529 kts | 111° |
| 2026-02-22 06:35 | 35.66844 | 140.99237 | 29001 ft | 531 kts | 111° |
| 2026-02-22 06:35 | 35.65631 | 141.03522 | 29340 ft | 530 kts | 111° |
| 2026-02-22 06:36 | 35.64405 | 141.07810 | 29635 ft | 531 kts | 111° |
| 2026-02-22 06:36 | 35.63165 | 141.12089 | 29934 ft | 531 kts | 111° |
| 2026-02-22 06:36 | 35.61911 | 141.16361 | 30207 ft | 531 kts | 111° |
| 2026-02-22 06:36 | 35.60646 | 141.20634 | 30431 ft | 532 kts | 111° |
| 2026-02-22 06:37 | 35.59374 | 141.24910 | 30655 ft | 532 kts | 111° |
| 2026-02-22 06:37 | 35.58098 | 141.29188 | 30871 ft | 533 kts | 111° |
| 2026-02-22 06:37 | 35.56818 | 141.33470 | 31092 ft | 534 kts | 111° |
| 2026-02-22 06:37 | 35.55540 | 141.37743 | 31325 ft | 534 kts | 111° |
| 2026-02-22 06:38 | 35.54274 | 141.41970 | 31563 ft | 534 kts | 111° |
| 2026-02-22 06:38 | 35.52990 | 141.46254 | 31732 ft | 534 kts | 111° |
| 2026-02-22 06:38 | 35.51704 | 141.50539 | 31919 ft | 535 kts | 111° |
| 2026-02-22 06:38 | 35.50415 | 141.54827 | 32109 ft | 536 kts | 111° |
| 2026-02-22 06:39 | 35.49123 | 141.59120 | 32304 ft | 536 kts | 111° |
| 2026-02-22 06:39 | 35.47829 | 141.63412 | 32486 ft | 536 kts | 111° |
| 2026-02-22 06:39 | 35.46532 | 141.67709 | 32678 ft | 537 kts | 111° |
| 2026-02-22 06:39 | 35.45297 | 141.72031 | 32843 ft | 538 kts | 107° |
| 2026-02-22 06:40 | 35.44500 | 141.76514 | 32975 ft | 539 kts | 97° |
| 2026-02-22 06:40 | 35.44207 | 141.81102 | 33127 ft | 540 kts | 92° |
| 2026-02-22 06:40 | 35.44050 | 141.88794 | 33161 ft | 545 kts | 90° |
| 2026-02-22 06:41 | 35.44031 | 141.99611 | 33168 ft | 545 kts | 89° |
| 2026-02-22 06:41 | 35.44006 | 142.07406 | 33170 ft | 545 kts | 89° |
| 2026-02-22 06:42 | 35.43940 | 142.16623 | 33171 ft | 545 kts | 90° |
| 2026-02-22 06:42 | 35.43951 | 142.25930 | 33149 ft | 544 kts | 84° |
| 2026-02-22 06:43 | 35.45587 | 142.34897 | 33170 ft | 536 kts | 64° |
| 2026-02-22 06:43 | 35.47289 | 142.38935 | 33171 ft | 529 kts | 53° |
| 2026-02-22 06:43 | 35.49521 | 142.42480 | 33176 ft | 522 kts | 42° |
| 2026-02-22 06:44 | 35.54797 | 142.48533 | 33172 ft | 518 kts | 35° |
| 2026-02-22 06:44 | 35.60367 | 142.54146 | 33174 ft | 517 kts | 34° |
| 2026-02-22 06:45 | 35.65934 | 142.59762 | 33170 ft | 517 kts | 34° |
| 2026-02-22 06:45 | 35.71416 | 142.65419 | 33171 ft | 518 kts | 35° |
| 2026-02-22 06:46 | 35.76908 | 142.71155 | 33170 ft | 518 kts | 35° |
| 2026-02-22 06:47 | 35.85148 | 142.79795 | 33174 ft | 517 kts | 35° |
| 2026-02-22 06:47 | 35.90631 | 142.85553 | 33174 ft | 517 kts | 35° |
| 2026-02-22 06:48 | 35.96084 | 142.91287 | 33171 ft | 517 kts | 35° |
| 2026-02-22 06:48 | 36.01568 | 142.97064 | 33174 ft | 518 kts | 35° |
| 2026-02-22 06:49 | 36.07044 | 143.02845 | 33176 ft | 517 kts | 35° |
| 2026-02-22 06:49 | 36.12524 | 143.08641 | 33171 ft | 517 kts | 35° |
| 2026-02-22 06:50 | 36.17987 | 143.14429 | 33173 ft | 517 kts | 35° |
| 2026-02-22 06:50 | 36.23453 | 143.20231 | 33172 ft | 517 kts | 35° |
| 2026-02-22 06:51 | 36.28879 | 143.26003 | 33180 ft | 517 kts | 35° |
| 2026-02-22 06:51 | 36.34334 | 143.31817 | 33172 ft | 517 kts | 35° |
| 2026-02-22 06:52 | 36.39781 | 143.37634 | 33173 ft | 517 kts | 35° |
| 2026-02-22 06:52 | 36.45228 | 143.43460 | 33174 ft | 517 kts | 35° |
| 2026-02-22 06:53 | 36.50676 | 143.49299 | 33176 ft | 517 kts | 35° |
| 2026-02-22 06:53 | 36.56117 | 143.55143 | 33178 ft | 516 kts | 35° |
| 2026-02-22 06:54 | 36.61544 | 143.60983 | 33178 ft | 516 kts | 35° |
| 2026-02-22 06:54 | 36.66971 | 143.66833 | 33179 ft | 516 kts | 35° |
| 2026-02-22 06:55 | 36.72400 | 143.72697 | 33177 ft | 516 kts | 36° |
| 2026-02-22 06:55 | 36.77816 | 143.78559 | 33181 ft | 515 kts | 35° |
| 2026-02-22 06:56 | 36.83228 | 143.84428 | 33182 ft | 515 kts | 36° |
| 2026-02-22 06:56 | 36.88606 | 143.90270 | 33181 ft | 516 kts | 36° |
| 2026-02-22 06:57 | 36.94019 | 143.96163 | 33181 ft | 516 kts | 36° |
| 2026-02-22 06:57 | 36.99430 | 144.02065 | 33181 ft | 516 kts | 36° |
| 2026-02-22 06:58 | 37.04845 | 144.07983 | 33181 ft | 516 kts | 36° |
| 2026-02-22 06:58 | 37.10254 | 144.13906 | 33182 ft | 516 kts | 36° |
| 2026-02-22 06:59 | 37.15624 | 144.19798 | 33181 ft | 516 kts | 36° |
| 2026-02-22 06:59 | 37.21038 | 144.25749 | 33193 ft | 516 kts | 36° |
| 2026-02-22 07:00 | 37.26433 | 144.31693 | 33186 ft | 515 kts | 36° |
| 2026-02-22 07:00 | 37.31823 | 144.37643 | 33187 ft | 515 kts | 36° |
| 2026-02-22 07:01 | 37.37202 | 144.43591 | 33184 ft | 515 kts | 36° |
| 2026-02-22 07:01 | 37.42578 | 144.49548 | 33186 ft | 515 kts | 36° |
| 2026-02-22 07:02 | 37.47917 | 144.55477 | 33192 ft | 514 kts | 36° |
| 2026-02-22 07:02 | 37.53302 | 144.61468 | 33193 ft | 513 kts | 36° |
| 2026-02-22 07:03 | 37.58625 | 144.67401 | 33195 ft | 513 kts | 36° |
| 2026-02-22 07:03 | 37.63973 | 144.73374 | 33194 ft | 513 kts | 36° |
| 2026-02-22 07:04 | 37.69320 | 144.79359 | 33200 ft | 512 kts | 36° |
| 2026-02-22 07:04 | 37.74643 | 144.85330 | 33218 ft | 512 kts | 36° |
| 2026-02-22 07:05 | 37.79977 | 144.91323 | 33209 ft | 512 kts | 36° |
| 2026-02-22 07:05 | 37.85304 | 144.97321 | 33214 ft | 512 kts | 36° |
| 2026-02-22 07:06 | 37.90600 | 145.03296 | 33212 ft | 512 kts | 36° |
| 2026-02-22 07:06 | 37.95911 | 145.09302 | 33213 ft | 512 kts | 36° |
| 2026-02-22 07:07 | 38.01223 | 145.15318 | 33213 ft | 512 kts | 36° |
| 2026-02-22 07:07 | 38.06532 | 145.21344 | 33228 ft | 512 kts | 36° |
| 2026-02-22 07:08 | 38.11837 | 145.27378 | 33230 ft | 512 kts | 36° |
| 2026-02-22 07:08 | 38.17141 | 145.33424 | 33225 ft | 511 kts | 36° |
| 2026-02-22 07:09 | 38.22407 | 145.39439 | 33227 ft | 511 kts | 36° |
| 2026-02-22 07:09 | 38.27700 | 145.45495 | 33230 ft | 512 kts | 36° |
| 2026-02-22 07:10 | 38.32990 | 145.51562 | 33233 ft | 512 kts | 36° |
| 2026-02-22 07:10 | 38.38243 | 145.57676 | 33244 ft | 511 kts | 37° |
| 2026-02-22 07:11 | 38.43455 | 145.63843 | 33241 ft | 511 kts | 37° |
| 2026-02-22 07:11 | 38.48667 | 145.70019 | 33242 ft | 511 kts | 37° |
| 2026-02-22 07:12 | 38.53875 | 145.76188 | 33241 ft | 511 kts | 37° |
| 2026-02-22 07:12 | 38.59088 | 145.82368 | 33246 ft | 510 kts | 37° |
| 2026-02-22 07:13 | 38.64257 | 145.88508 | 33247 ft | 510 kts | 37° |
| 2026-02-22 07:13 | 38.69443 | 145.94681 | 33267 ft | 510 kts | 37° |
| 2026-02-22 07:14 | 38.74631 | 146.00868 | 33251 ft | 510 kts | 37° |
| 2026-02-22 07:14 | 38.79820 | 146.07073 | 33253 ft | 509 kts | 37° |
| 2026-02-22 07:15 | 38.84991 | 146.13269 | 33254 ft | 508 kts | 37° |
| 2026-02-22 07:15 | 38.90159 | 146.19473 | 33254 ft | 508 kts | 37° |
| 2026-02-22 07:16 | 38.95324 | 146.25685 | 33257 ft | 508 kts | 37° |
| 2026-02-22 07:16 | 39.00484 | 146.31905 | 33274 ft | 508 kts | 37° |
| 2026-02-22 07:17 | 39.05598 | 146.38082 | 33260 ft | 507 kts | 37° |
| 2026-02-22 07:17 | 39.10737 | 146.44302 | 33261 ft | 507 kts | 37° |
| 2026-02-22 07:18 | 39.15869 | 146.50527 | 33263 ft | 507 kts | 37° |
| 2026-02-22 07:18 | 39.20996 | 146.56758 | 33266 ft | 507 kts | 37° |
| 2026-02-22 07:19 | 39.26121 | 146.63001 | 33267 ft | 507 kts | 37° |
| 2026-02-22 07:19 | 39.31247 | 146.69258 | 33268 ft | 507 kts | 37° |
| 2026-02-22 07:20 | 39.36369 | 146.75524 | 33262 ft | 507 kts | 37° |
| 2026-02-22 07:20 | 39.41487 | 146.81799 | 33268 ft | 507 kts | 37° |
| 2026-02-22 07:21 | 39.46598 | 146.88079 | 33271 ft | 506 kts | 37° |
| 2026-02-22 07:21 | 39.51694 | 146.94354 | 33272 ft | 505 kts | 37° |
| 2026-02-22 07:22 | 39.56753 | 147.00594 | 33279 ft | 505 kts | 37° |
| 2026-02-22 07:22 | 39.61838 | 147.06881 | 33275 ft | 505 kts | 37° |
| 2026-02-22 07:23 | 39.66923 | 147.13182 | 33285 ft | 505 kts | 37° |
| 2026-02-22 07:23 | 39.71984 | 147.19468 | 33284 ft | 503 kts | 37° |
| 2026-02-22 07:24 | 39.77033 | 147.25751 | 33282 ft | 502 kts | 37° |
| 2026-02-22 07:24 | 39.82081 | 147.32043 | 33288 ft | 503 kts | 37° |
| 2026-02-22 07:25 | 39.87125 | 147.38346 | 33297 ft | 503 kts | 37° |
| 2026-02-22 07:25 | 39.92147 | 147.44637 | 33287 ft | 500 kts | 38° |
| 2026-02-22 07:26 | 39.97161 | 147.50931 | 33292 ft | 500 kts | 38° |
| 2026-02-22 07:26 | 40.02169 | 147.57228 | 33290 ft | 501 kts | 38° |
| 2026-02-22 07:27 | 40.07179 | 147.63541 | 33290 ft | 501 kts | 38° |
| 2026-02-22 07:27 | 40.12188 | 147.69870 | 33289 ft | 499 kts | 38° |
| 2026-02-22 07:28 | 40.16328 | 147.75113 | 33293 ft | 498 kts | 38° |
| 2026-02-22 07:28 | 40.21304 | 147.81422 | 33292 ft | 498 kts | 38° |
| 2026-02-22 07:29 | 40.26270 | 147.87732 | 33301 ft | 498 kts | 38° |
| 2026-02-22 07:29 | 40.31243 | 147.94064 | 33298 ft | 498 kts | 38° |
| 2026-02-22 07:30 | 40.36198 | 148.00391 | 33301 ft | 497 kts | 38° |
| 2026-02-22 07:30 | 40.41155 | 148.06732 | 33306 ft | 497 kts | 38° |
| 2026-02-22 07:31 | 40.46102 | 148.13074 | 33304 ft | 497 kts | 38° |
| 2026-02-22 07:31 | 40.51033 | 148.19411 | 33304 ft | 495 kts | 38° |
| 2026-02-22 07:32 | 40.55952 | 148.25744 | 33304 ft | 495 kts | 38° |
| 2026-02-22 07:32 | 40.60839 | 148.32049 | 33310 ft | 495 kts | 38° |
| 2026-02-22 07:33 | 40.65748 | 148.38397 | 33308 ft | 494 kts | 38° |
| 2026-02-22 07:33 | 40.70646 | 148.44745 | 33309 ft | 494 kts | 38° |
| 2026-02-22 07:34 | 40.75543 | 148.51104 | 33323 ft | 494 kts | 38° |
| 2026-02-22 07:34 | 40.80428 | 148.57463 | 33316 ft | 493 kts | 38° |
| 2026-02-22 07:35 | 40.85307 | 148.63827 | 33316 ft | 493 kts | 38° |
| 2026-02-22 07:35 | 40.90178 | 148.70195 | 33336 ft | 493 kts | 38° |
| 2026-02-22 07:36 | 40.95044 | 148.76571 | 33318 ft | 492 kts | 38° |
| 2026-02-22 07:36 | 40.99875 | 148.82914 | 33316 ft | 492 kts | 38° |
| 2026-02-22 07:37 | 41.04730 | 148.89303 | 33323 ft | 492 kts | 38° |
| 2026-02-22 07:37 | 41.09589 | 148.95713 | 33327 ft | 493 kts | 38° |
| 2026-02-22 07:38 | 41.14442 | 149.02132 | 33326 ft | 493 kts | 38° |
| 2026-02-22 07:38 | 41.19294 | 149.08564 | 33325 ft | 493 kts | 38° |
| 2026-02-22 07:39 | 41.24139 | 149.15002 | 33328 ft | 492 kts | 38° |
| 2026-02-22 07:39 | 41.28976 | 149.21444 | 33332 ft | 492 kts | 38° |
| 2026-02-22 07:40 | 41.33780 | 149.27855 | 33333 ft | 492 kts | 38° |
| 2026-02-22 07:40 | 41.38614 | 149.34322 | 33340 ft | 492 kts | 38° |
| 2026-02-22 07:41 | 41.43430 | 149.40779 | 33336 ft | 491 kts | 38° |
| 2026-02-22 07:41 | 41.48240 | 149.47242 | 33344 ft | 491 kts | 38° |
| 2026-02-22 07:42 | 41.53050 | 149.53718 | 33346 ft | 491 kts | 38° |
| 2026-02-22 07:42 | 41.60249 | 149.63439 | 33345 ft | 491 kts | 39° |
| 2026-02-22 07:43 | 41.65045 | 149.69933 | 33350 ft | 491 kts | 39° |
| 2026-02-22 07:43 | 41.69842 | 149.76444 | 33353 ft | 490 kts | 39° |
| 2026-02-22 07:44 | 41.74622 | 149.82948 | 33350 ft | 490 kts | 39° |
| 2026-02-22 07:44 | 41.79403 | 149.89467 | 33354 ft | 490 kts | 39° |
| 2026-02-22 07:45 | 41.84148 | 149.95949 | 33365 ft | 490 kts | 39° |
| 2026-02-22 07:45 | 41.88921 | 150.02486 | 33363 ft | 490 kts | 39° |
| 2026-02-22 07:46 | 41.93689 | 150.09031 | 33348 ft | 491 kts | 39° |
| 2026-02-22 07:46 | 41.98459 | 150.15593 | 33365 ft | 491 kts | 39° |
| 2026-02-22 07:47 | 42.03223 | 150.22164 | 33361 ft | 490 kts | 39° |
| 2026-02-22 07:47 | 42.07978 | 150.28736 | 33360 ft | 490 kts | 39° |
| 2026-02-22 07:48 | 42.12723 | 150.35309 | 33358 ft | 490 kts | 39° |
| 2026-02-22 07:48 | 42.17465 | 150.41893 | 33362 ft | 489 kts | 39° |
| 2026-02-22 07:49 | 42.22202 | 150.48486 | 33368 ft | 489 kts | 39° |
| 2026-02-22 07:49 | 42.26943 | 150.55098 | 33371 ft | 490 kts | 39° |
| 2026-02-22 07:50 | 42.31647 | 150.61673 | 33366 ft | 489 kts | 40° |
| 2026-02-22 07:50 | 42.36369 | 150.68292 | 33371 ft | 489 kts | 40° |
| 2026-02-22 07:51 | 42.41089 | 150.74922 | 33374 ft | 489 kts | 40° |
| 2026-02-22 07:51 | 42.45799 | 150.81552 | 33392 ft | 489 kts | 40° |
| 2026-02-22 07:52 | 42.50509 | 150.88197 | 33375 ft | 488 kts | 40° |
| 2026-02-22 07:52 | 42.55215 | 150.94854 | 33373 ft | 489 kts | 40° |
| 2026-02-22 07:53 | 42.59917 | 151.01520 | 33373 ft | 489 kts | 40° |
| 2026-02-22 07:53 | 42.64618 | 151.08200 | 33376 ft | 489 kts | 40° |
| 2026-02-22 07:54 | 42.69315 | 151.14891 | 33373 ft | 489 kts | 40° |
| 2026-02-22 07:54 | 42.74010 | 151.21593 | 33373 ft | 489 kts | 40° |
| 2026-02-22 07:55 | 42.78671 | 151.28261 | 33381 ft | 489 kts | 40° |
| 2026-02-22 07:55 | 42.83355 | 151.34979 | 33382 ft | 489 kts | 40° |
| 2026-02-22 07:56 | 42.88036 | 151.41710 | 33381 ft | 489 kts | 40° |
| 2026-02-22 07:56 | 42.92717 | 151.48456 | 33406 ft | 490 kts | 40° |
| 2026-02-22 07:57 | 42.97390 | 151.55204 | 33384 ft | 489 kts | 41° |
| 2026-02-22 07:57 | 43.02058 | 151.61963 | 33384 ft | 489 kts | 41° |
| 2026-02-22 07:58 | 43.06719 | 151.68730 | 33387 ft | 489 kts | 41° |
| 2026-02-22 07:58 | 43.11383 | 151.75514 | 33387 ft | 489 kts | 41° |
| 2026-02-22 07:59 | 43.16041 | 151.82307 | 33391 ft | 489 kts | 41° |
| 2026-02-22 07:59 | 43.20692 | 151.89106 | 33391 ft | 489 kts | 41° |
| 2026-02-22 08:00 | 43.25349 | 151.95929 | 33408 ft | 489 kts | 41° |
| 2026-02-22 08:00 | 43.29967 | 152.02712 | 33390 ft | 489 kts | 42° |
| 2026-02-22 08:01 | 43.34614 | 152.09554 | 33387 ft | 490 kts | 42° |
| 2026-02-22 08:01 | 43.39258 | 152.16409 | 33385 ft | 490 kts | 42° |
| 2026-02-22 08:02 | 43.43897 | 152.23271 | 33387 ft | 490 kts | 42° |
| 2026-02-22 08:02 | 43.48532 | 152.30145 | 33387 ft | 490 kts | 42° |
| 2026-02-22 08:03 | 43.53158 | 152.37023 | 33388 ft | 490 kts | 42° |
| 2026-02-22 08:03 | 43.57787 | 152.43921 | 33392 ft | 490 kts | 43° |
| 2026-02-22 08:04 | 43.62413 | 152.50832 | 33391 ft | 490 kts | 43° |
| 2026-02-22 08:04 | 43.67039 | 152.57760 | 33390 ft | 490 kts | 43° |
| 2026-02-22 08:05 | 43.71652 | 152.64684 | 33392 ft | 490 kts | 43° |
| 2026-02-22 08:05 | 43.76260 | 152.71619 | 33390 ft | 489 kts | 43° |
| 2026-02-22 08:06 | 43.80838 | 152.78524 | 33395 ft | 489 kts | 43° |
| 2026-02-22 08:06 | 43.85438 | 152.85482 | 33394 ft | 489 kts | 43° |
| 2026-02-22 08:07 | 43.90033 | 152.92447 | 33407 ft | 489 kts | 43° |
| 2026-02-22 08:07 | 43.94618 | 152.99415 | 33390 ft | 489 kts | 43° |
| 2026-02-22 08:08 | 43.99199 | 153.06394 | 33393 ft | 489 kts | 43° |
| 2026-02-22 08:08 | 44.03777 | 153.13385 | 33387 ft | 489 kts | 43° |
| 2026-02-22 08:09 | 44.08317 | 153.20336 | 33396 ft | 489 kts | 43° |
| 2026-02-22 08:09 | 44.12889 | 153.27353 | 33395 ft | 489 kts | 44° |
| 2026-02-22 08:10 | 44.17452 | 153.34375 | 33389 ft | 489 kts | 44° |
| 2026-02-22 08:10 | 44.22015 | 153.41412 | 33392 ft | 489 kts | 44° |
| 2026-02-22 08:11 | 44.26575 | 153.48463 | 33389 ft | 489 kts | 44° |
| 2026-02-22 08:11 | 44.31131 | 153.55526 | 33389 ft | 489 kts | 44° |
| 2026-02-22 08:12 | 44.35652 | 153.62552 | 33390 ft | 489 kts | 44° |
| 2026-02-22 08:12 | 44.40199 | 153.69636 | 33396 ft | 489 kts | 44° |
| 2026-02-22 08:13 | 44.44737 | 153.76724 | 33388 ft | 489 kts | 44° |
| 2026-02-22 08:13 | 44.49284 | 153.83844 | 33387 ft | 489 kts | 44° |
| 2026-02-22 08:14 | 44.53819 | 153.90963 | 33391 ft | 489 kts | 44° |
| 2026-02-22 08:14 | 44.58350 | 153.98093 | 33387 ft | 490 kts | 44° |
| 2026-02-22 08:15 | 44.62876 | 154.05235 | 33378 ft | 489 kts | 44° |
| 2026-02-22 08:15 | 44.67396 | 154.12385 | 33389 ft | 489 kts | 44° |
| 2026-02-22 08:16 | 44.71149 | 154.18336 | 33401 ft | 489 kts | 44° |
| 2026-02-22 08:16 | 44.75666 | 154.25514 | 33391 ft | 489 kts | 45° |
| 2026-02-22 08:17 | 44.80903 | 154.33859 | 33390 ft | 489 kts | 45° |
| 2026-02-22 08:17 | 44.84678 | 154.39892 | 33396 ft | 489 kts | 45° |
| 2026-02-22 08:18 | 44.89158 | 154.47125 | 33393 ft | 490 kts | 46° |
| 2026-02-22 08:18 | 44.93558 | 154.54389 | 33392 ft | 490 kts | 46° |
| 2026-02-22 08:19 | 44.97980 | 154.61717 | 33395 ft | 490 kts | 46° |
| 2026-02-22 08:19 | 45.02407 | 154.69051 | 33392 ft | 490 kts | 46° |
| 2026-02-22 08:20 | 45.06835 | 154.76392 | 33390 ft | 490 kts | 46° |
| 2026-02-22 08:20 | 45.11253 | 154.83733 | 33393 ft | 490 kts | 46° |
| 2026-02-22 08:21 | 45.17875 | 154.94776 | 33393 ft | 490 kts | 46° |
| 2026-02-22 08:22 | 45.22281 | 155.02147 | 33394 ft | 490 kts | 46° |
| 2026-02-22 08:22 | 45.26668 | 155.09507 | 33392 ft | 490 kts | 46° |
| 2026-02-22 08:23 | 45.31049 | 155.16875 | 33386 ft | 492 kts | 46° |
| 2026-02-22 08:23 | 45.33254 | 155.20591 | 33601 ft | 491 kts | 46° |
| 2026-02-22 08:23 | 45.35451 | 155.24300 | 33929 ft | 489 kts | 46° |
| 2026-02-22 08:23 | 45.37637 | 155.27994 | 34234 ft | 487 kts | 46° |
| 2026-02-22 08:24 | 45.39821 | 155.31690 | 34385 ft | 488 kts | 46° |
| 2026-02-22 08:24 | 45.44194 | 155.39104 | 34489 ft | 488 kts | 47° |
| 2026-02-22 08:24 | 45.46372 | 155.42804 | 34670 ft | 488 kts | 47° |
| 2026-02-22 08:25 | 45.48551 | 155.46512 | 34836 ft | 488 kts | 47° |
| 2026-02-22 08:25 | 45.50732 | 155.50227 | 34977 ft | 488 kts | 47° |
| 2026-02-22 08:25 | 45.52882 | 155.53892 | 35113 ft | 488 kts | 47° |
| 2026-02-22 08:26 | 45.57249 | 155.61353 | 35340 ft | 490 kts | 47° |
| 2026-02-22 08:26 | 45.61613 | 155.68828 | 35399 ft | 491 kts | 47° |
| 2026-02-22 08:27 | 45.65980 | 155.76332 | 35400 ft | 490 kts | 47° |
| 2026-02-22 08:27 | 45.70284 | 155.83748 | 35408 ft | 490 kts | 47° |
| 2026-02-22 08:28 | 45.74687 | 155.91351 | 35402 ft | 491 kts | 47° |
| 2026-02-22 08:28 | 45.79039 | 155.98888 | 35401 ft | 491 kts | 47° |
| 2026-02-22 08:29 | 45.83389 | 156.06443 | 35405 ft | 491 kts | 47° |
| 2026-02-22 08:29 | 45.87706 | 156.13960 | 35405 ft | 491 kts | 47° |
| 2026-02-22 08:30 | 45.92044 | 156.21534 | 35409 ft | 491 kts | 47° |
| 2026-02-22 08:30 | 45.96376 | 156.29118 | 35409 ft | 491 kts | 47° |
| 2026-02-22 08:31 | 46.00706 | 156.36720 | 35403 ft | 491 kts | 47° |
| 2026-02-22 08:31 | 46.05029 | 156.44329 | 35413 ft | 491 kts | 48° |
| 2026-02-22 08:32 | 46.09352 | 156.51959 | 35403 ft | 491 kts | 48° |
| 2026-02-22 08:32 | 46.13671 | 156.59605 | 35415 ft | 492 kts | 48° |
| 2026-02-22 08:33 | 46.17986 | 156.67264 | 35425 ft | 491 kts | 48° |
| 2026-02-22 08:33 | 46.22267 | 156.74882 | 35416 ft | 492 kts | 48° |
| 2026-02-22 08:34 | 46.26575 | 156.82571 | 35409 ft | 492 kts | 48° |
| 2026-02-22 08:34 | 46.30878 | 156.90271 | 35412 ft | 492 kts | 48° |
| 2026-02-22 08:35 | 46.35172 | 156.97976 | 35422 ft | 492 kts | 48° |
| 2026-02-22 08:35 | 46.39464 | 157.05700 | 35414 ft | 492 kts | 48° |
| 2026-02-22 08:36 | 46.43759 | 157.13451 | 35412 ft | 493 kts | 49° |
| 2026-02-22 08:36 | 46.48042 | 157.21202 | 35419 ft | 493 kts | 49° |
| 2026-02-22 08:37 | 46.52324 | 157.28973 | 35419 ft | 493 kts | 49° |
| 2026-02-22 08:37 | 46.56603 | 157.36759 | 35414 ft | 493 kts | 49° |
| 2026-02-22 08:38 | 46.60878 | 157.44561 | 35416 ft | 493 kts | 49° |
| 2026-02-22 08:38 | 46.65153 | 157.52385 | 35415 ft | 493 kts | 49° |
| 2026-02-22 08:39 | 46.69421 | 157.60218 | 35414 ft | 494 kts | 49° |
| 2026-02-22 08:39 | 46.73659 | 157.68017 | 35411 ft | 494 kts | 49° |
| 2026-02-22 08:40 | 46.77921 | 157.75885 | 35413 ft | 494 kts | 49° |
| 2026-02-22 08:40 | 46.82177 | 157.83763 | 35415 ft | 494 kts | 49° |
| 2026-02-22 08:41 | 46.86429 | 157.91655 | 35412 ft | 494 kts | 49° |
| 2026-02-22 08:41 | 46.90672 | 157.99555 | 35413 ft | 494 kts | 49° |
| 2026-02-22 08:42 | 46.94911 | 158.07469 | 35418 ft | 494 kts | 49° |
| 2026-02-22 08:42 | 46.99146 | 158.15397 | 35413 ft | 494 kts | 49° |
| 2026-02-22 08:43 | 47.03371 | 158.23332 | 35415 ft | 494 kts | 49° |
| 2026-02-22 08:43 | 47.07573 | 158.31243 | 35414 ft | 494 kts | 49° |
| 2026-02-22 08:44 | 47.11794 | 158.39216 | 35414 ft | 494 kts | 49° |
| 2026-02-22 08:44 | 47.16004 | 158.47188 | 35414 ft | 494 kts | 49° |
| 2026-02-22 08:45 | 47.20213 | 158.55184 | 35411 ft | 494 kts | 49° |
| 2026-02-22 08:45 | 47.24409 | 158.63179 | 35411 ft | 494 kts | 49° |
| 2026-02-22 08:46 | 47.28604 | 158.71194 | 35411 ft | 494 kts | 49° |
| 2026-02-22 08:46 | 47.32792 | 158.79218 | 35411 ft | 494 kts | 50° |
| 2026-02-22 08:47 | 47.36971 | 158.87249 | 35409 ft | 494 kts | 50° |
| 2026-02-22 08:47 | 47.41150 | 158.95304 | 35409 ft | 494 kts | 50° |
| 2026-02-22 08:48 | 47.45296 | 159.03319 | 35411 ft | 494 kts | 50° |
| 2026-02-22 08:48 | 47.49460 | 159.11393 | 35412 ft | 494 kts | 50° |